Time;durP1;ratioP1;P1;durP2;ratioP2;P2;SDS_P1;SDS_P2;PMS_P1;PMS_P2;Temp;Humidity;BMP_temperature;BMP_pressure;BME280_temperature;BME280_humidity;BME280_pressure;Samples;Min_cycle;Max_cycle;Signal;HPM_P1;HPM_P2
2022/02/04 00:04:16;;;;;;;12.98;6.03;;;8.90;55.30;;;;;;5110138;28;20081;-52
2022/02/04 00:07:04;;;;;;;11.65;6.03;;;8.90;55.30;;;;;;5111597;28;20050;-56
2022/02/04 00:22:45;;;;;;;11.50;6.75;;;8.90;55.20;;;;;;5109614;28;20134;-52
2022/02/04 00:25:24;;;;;;;13.25;6.70;;;8.90;55.20;;;;;;5108513;28;20081;-54
2022/02/04 00:27:51;;;;;;;11.70;6.70;;;8.90;55.30;;;;;;5102083;28;20426;-57
2022/02/04 00:30:23;;;;;;;15.20;7.97;;;8.90;55.20;;;;;;5086243;28;20034;-51
2022/02/04 00:32:51;;;;;;;19.00;7.20;;;8.90;55.20;;;;;;5110729;28;20473;-57
2022/02/04 00:38:06;;;;;;;11.70;6.05;;;8.90;55.20;;;;;;5113134;28;20032;-53
2022/02/04 00:40:36;;;;;;;13.55;7.00;;;8.80;55.10;;;;;;5101197;28;20027;-52
2022/02/04 00:43:06;;;;;;;12.63;4.95;;;8.80;55.20;;;;;;5109687;28;20027;-52
2022/02/04 00:48:59;;;;;;;12.00;6.10;;;8.80;55.20;;;;;;5009149;28;20038;-53
2022/02/04 00:51:32;;;;;;;13.60;5.88;;;8.70;55.30;;;;;;5097507;28;20038;-55
2022/02/04 01:13:30;;;;;;;11.00;5.72;;;8.30;56.80;;;;;;5110259;28;19976;-54
2022/02/04 01:26:55;;;;;;;16.92;5.82;;;8.30;57.30;;;;;;5110130;28;20051;-54
2022/02/04 01:29:22;;;;;;;13.40;5.90;;;8.20;57.20;;;;;;5108853;28;20031;-55
2022/02/04 01:31:48;;;;;;;10.65;5.75;;;8.20;57.30;;;;;;5110145;28;20058;-54
2022/02/04 01:34:14;;;;;;;14.68;6.28;;;8.20;57.30;;;;;;5106262;28;20452;-55
2022/02/04 01:36:40;;;;;;;11.82;6.00;;;8.30;57.30;;;;;;5107381;28;20035;-56
2022/02/04 01:39:05;;;;;;;11.52;5.93;;;8.30;57.30;;;;;;5109101;28;20035;-55
2022/02/04 01:41:31;;;;;;;12.35;6.80;;;8.30;57.40;;;;;;5111016;28;20031;-55
2022/02/04 01:43:57;;;;;;;12.70;6.40;;;8.30;57.30;;;;;;5110930;28;20352;-55
2022/02/04 01:46:22;;;;;;;14.52;6.63;;;8.30;57.20;;;;;;5104599;28;20023;-54
2022/02/04 01:48:49;;;;;;;20.25;7.30;;;8.40;57.20;;;;;;5089875;28;20035;-54
2022/02/04 01:51:15;;;;;;;14.38;6.72;;;8.40;57.20;;;;;;5101463;28;20036;-49
2022/02/04 01:53:42;;;;;;;11.70;6.07;;;8.30;57.00;;;;;;5089454;28;20032;-55
2022/02/04 01:56:11;;;;;;;14.32;6.00;;;8.30;57.10;;;;;;5102973;28;20073;-56
2022/02/04 01:58:38;;;;;;;14.38;6.65;;;8.30;57.80;;;;;;5111509;28;20035;-50
2022/02/04 02:01:04;;;;;;;12.43;6.78;;;8.30;57.20;;;;;;5098178;28;20456;-53
2022/02/04 02:03:31;;;;;;;13.30;7.07;;;8.30;57.10;;;;;;5101954;28;20587;-53
2022/02/04 02:06:01;;;;;;;15.23;6.75;;;8.30;57.10;;;;;;5106001;28;20023;-53
2022/02/04 02:08:27;;;;;;;13.70;6.95;;;8.30;57.10;;;;;;5110135;28;20138;-55
2022/02/04 02:10:53;;;;;;;16.73;7.38;;;8.30;57.00;;;;;;5111065;28;20570;-53
2022/02/04 02:13:41;;;;;;;15.85;6.75;;;8.30;57.00;;;;;;5100782;28;20031;-53
2022/02/04 02:35:51;;;;;;;13.02;6.57;;;8.40;57.40;;;;;;5109832;28;20031;-54
2022/02/04 02:52:15;;;;;;;15.65;7.07;;;8.40;57.80;;;;;;5110413;28;20081;-53
2022/02/04 02:59:23;;;;;;;13.20;6.60;;;8.40;57.70;;;;;;5106840;28;19908;-52
2022/02/04 03:01:50;;;;;;;11.55;6.53;;;8.40;57.60;;;;;;5110652;28;20063;-54
2022/02/04 03:04:17;;;;;;;11.68;6.25;;;8.50;57.60;;;;;;5109970;28;20351;-55
2022/02/04 03:06:45;;;;;;;11.07;6.47;;;8.50;57.40;;;;;;5106801;28;20038;-52
2022/02/04 03:09:11;;;;;;;12.57;6.97;;;8.50;57.40;;;;;;5110790;28;20023;-51
2022/02/04 03:11:37;;;;;;;14.95;7.65;;;8.50;57.70;;;;;;5103576;28;20061;-57
2022/02/04 03:14:03;;;;;;;14.48;7.03;;;8.50;57.70;;;;;;5107948;28;20544;-52
2022/02/04 03:16:29;;;;;;;12.43;6.63;;;8.50;57.60;;;;;;5109388;28;20515;-55
2022/02/04 03:18:57;;;;;;;12.30;6.50;;;8.40;57.70;;;;;;5113110;28;20046;-51
2022/02/04 03:21:34;;;;;;;15.07;7.28;;;8.40;58.00;;;;;;5103864;28;20056;-54
2022/02/04 03:24:08;;;;;;;13.38;7.13;;;8.30;58.40;;;;;;5102876;28;20087;-52
2022/02/04 03:29:12;;;;;;;16.85;7.65;;;8.20;58.90;;;;;;5113164;28;20028;-50
2022/02/04 03:31:43;;;;;;;18.52;8.02;;;8.10;59.30;;;;;;5113649;28;20475;-54
2022/02/04 03:34:09;;;;;;;14.77;7.80;;;8.10;59.50;;;;;;5111330;28;20036;-55
2022/02/04 03:36:35;;;;;;;13.63;7.30;;;7.90;60.40;;;;;;5113576;28;20049;-53
2022/02/04 03:39:01;;;;;;;14.65;7.40;;;7.90;60.00;;;;;;5108181;28;20122;-52
2022/02/04 03:41:27;;;;;;;12.75;7.45;;;7.90;60.00;;;;;;5085228;28;20097;-52
2022/02/04 03:43:53;;;;;;;17.10;8.32;;;8.00;60.00;;;;;;5113100;28;20035;-49
2022/02/04 03:46:18;;;;;;;18.83;8.15;;;8.00;59.70;;;;;;5106911;28;20020;-48
2022/02/04 03:48:44;;;;;;;14.82;7.65;;;8.00;59.80;;;;;;5105872;28;20072;-52
2022/02/04 03:51:10;;;;;;;12.20;7.10;;;8.00;59.90;;;;;;5095418;28;20666;-53
2022/02/04 03:53:35;;;;;;;14.25;7.38;;;7.90;59.90;;;;;;5089177;28;20050;-52
2022/02/04 03:56:01;;;;;;;12.65;7.25;;;7.90;59.90;;;;;;5111549;28;20028;-54
2022/02/04 03:58:29;;;;;;;15.75;7.13;;;7.90;59.90;;;;;;5104146;28;20030;-53
2022/02/04 04:00:54;;;;;;;14.02;7.75;;;7.90;59.90;;;;;;5112363;28;20027;-53
2022/02/04 04:03:20;;;;;;;12.73;7.65;;;7.90;60.00;;;;;;5110097;28;20035;-53
2022/02/04 04:05:49;;;;;;;15.07;7.85;;;7.90;59.90;;;;;;5108055;28;20027;-53
2022/02/04 04:08:17;;;;;;;18.85;8.07;;;7.80;60.00;;;;;;5106037;28;20032;-56
2022/02/04 04:10:43;;;;;;;17.60;8.52;;;7.80;60.00;;;;;;5110272;28;20038;-51
2022/02/04 04:13:10;;;;;;;15.55;8.02;;;7.90;60.00;;;;;;5112611;28;20528;-53
2022/02/04 04:15:36;;;;;;;14.13;6.75;;;7.80;60.00;;;;;;5110048;28;20054;-56
2022/02/04 04:18:03;;;;;;;13.95;7.78;;;7.80;60.30;;;;;;5110540;28;20063;-53
2022/02/04 04:20:30;;;;;;;19.02;7.75;;;7.70;60.40;;;;;;5112236;28;20031;-56
2022/02/04 04:22:56;;;;;;;16.98;8.07;;;7.70;60.50;;;;;;5106819;28;20475;-56
2022/02/04 04:25:22;;;;;;;12.75;7.05;;;7.60;60.70;;;;;;5107805;28;20027;-53
2022/02/04 04:30:33;;;;;;;15.35;7.68;;;7.70;60.90;;;;;;5110576;28;20536;-55
2022/02/04 04:32:59;;;;;;;14.27;7.07;;;7.60;61.00;;;;;;5099561;28;20107;-55
2022/02/04 04:35:28;;;;;;;18.40;7.63;;;7.60;61.10;;;;;;5088737;28;20024;-55
2022/02/04 04:38:22;;;;;;;16.00;7.75;;;7.60;61.20;;;;;;5109688;28;20067;-55
2022/02/04 04:41:03;;;;;;;13.95;7.50;;;7.50;61.30;;;;;;5110865;28;20410;-55
2022/02/04 04:46:59;;;;;;;18.85;8.02;;;7.40;61.70;;;;;;5109314;28;20069;-55
2022/02/04 05:29:57;;;;;;;18.63;8.00;;;7.50;62.20;;;;;;5111354;28;20376;-53
2022/02/04 05:32:23;;;;;;;16.58;7.32;;;7.50;62.20;;;;;;5105035;28;20111;-55
2022/02/04 05:34:50;;;;;;;18.17;7.97;;;7.60;62.00;;;;;;5111514;28;20093;-56
2022/02/04 05:37:18;;;;;;;17.88;7.85;;;7.60;61.80;;;;;;5101137;28;20032;-55
2022/02/04 05:40:07;;;;;;;18.75;8.30;;;7.60;61.90;;;;;;5104351;28;20110;-55
2022/02/04 05:42:36;;;;;;;16.38;8.65;;;7.60;62.40;;;;;;5105764;28;20096;-54
2022/02/04 05:45:04;;;;;;;20.20;7.97;;;7.70;62.50;;;;;;5110769;28;20068;-53
2022/02/04 05:47:30;;;;;;;22.77;8.60;;;7.60;62.40;;;;;;5108511;28;20035;-54
2022/02/04 05:52:31;;;;;;;19.90;8.55;;;7.70;62.80;;;;;;5097353;28;20023;-55
2022/02/04 05:55:17;;;;;;;16.40;8.18;;;7.70;63.10;;;;;;5086862;28;20032;-52
2022/02/04 05:58:13;;;;;;;17.83;8.52;;;7.70;62.90;;;;;;5106703;28;20031;-51
2022/02/04 06:00:56;;;;;;;18.35;8.50;;;7.70;63.00;;;;;;5109262;28;20032;-55
2022/02/04 06:09:02;;;;;;;17.10;8.35;;;7.60;63.70;;;;;;5107142;28;20027;-55
2022/02/04 06:11:51;;;;;;;21.88;8.93;;;7.70;63.80;;;;;;5107821;28;20030;-57
2022/02/04 06:14:30;;;;;;;;;;;7.70;63.80;;;;;;5101142;28;20031;-61
2022/02/04 06:22:26;;;;;;;;;;;7.50;63.30;;;;;;5109672;28;20062;-53
2022/02/04 06:24:53;;;;;;;12.25;7.18;;;7.50;63.60;;;;;;5103594;28;19911;-51
2022/02/04 06:27:22;;;;;;;20.30;8.10;;;7.50;63.50;;;;;;5110250;28;20023;-54
2022/02/04 06:29:53;;;;;;;17.05;8.07;;;7.50;63.90;;;;;;5108058;28;20023;-58
2022/02/04 06:32:19;;;;;;;23.27;9.18;;;7.60;64.30;;;;;;5105374;28;20058;-52
2022/02/04 06:34:46;;;;;;;16.05;8.50;;;7.60;64.10;;;;;;5090603;28;20042;-52
2022/02/04 06:37:12;;;;;;;19.65;8.80;;;7.60;64.40;;;;;;5091847;28;20020;-55
2022/02/04 06:39:38;;;;;;;17.83;8.60;;;7.60;64.40;;;;;;5091376;28;20024;-55
2022/02/04 06:42:04;;;;;;;18.48;8.15;;;7.60;64.40;;;;;;5103040;28;20104;-52
2022/02/04 06:44:30;;;;;;;21.45;8.52;;;7.60;64.20;;;;;;5107877;28;20477;-52
2022/02/04 06:46:56;;;;;;;21.48;8.30;;;7.70;64.40;;;;;;5108191;28;20039;-51
2022/02/04 06:49:23;;;;;;;17.58;8.00;;;7.70;64.30;;;;;;5096318;28;20036;-55
2022/02/04 06:51:48;;;;;;;18.17;8.73;;;7.70;64.30;;;;;;5113458;28;20046;-55
2022/02/04 06:54:14;;;;;;;18.45;9.07;;;7.70;64.40;;;;;;5114645;28;20465;-53
2022/02/04 06:56:39;;;;;;;18.08;8.70;;;7.80;64.80;;;;;;5114108;28;20028;-53
2022/02/04 06:59:24;;;;;;;21.92;10.00;;;7.90;64.20;;;;;;5114861;28;20065;-55
2022/02/04 07:01:49;;;;;;;22.95;8.95;;;7.90;64.40;;;;;;5105969;28;20037;-53
2022/02/04 07:04:15;;;;;;;18.05;8.77;;;8.00;64.40;;;;;;5112617;28;20046;-57
2022/02/04 07:06:50;;;;;;;22.85;8.60;;;8.00;64.30;;;;;;5112725;28;20109;-54
2022/02/04 07:22:06;;;;;;;18.67;8.30;;;8.10;63.90;;;;;;5111918;28;20062;-56
2022/02/04 07:24:32;;;;;;;15.52;8.40;;;8.00;63.20;;;;;;5111021;28;20028;-51
2022/02/04 07:26:58;;;;;;;18.75;8.38;;;8.00;63.70;;;;;;5114085;28;20027;-55
2022/02/04 07:29:23;;;;;;;17.67;9.00;;;8.10;63.60;;;;;;5103333;28;20517;-52
2022/02/04 07:31:50;;;;;;;18.52;8.50;;;8.20;63.60;;;;;;5114160;28;20033;-56
2022/02/04 07:34:35;;;;;;;18.75;9.60;;;8.20;62.90;;;;;;5113344;28;20031;-58
2022/02/04 07:42:29;;;;;;;22.50;9.63;;;8.70;61.70;;;;;;5109938;28;20031;-56
2022/02/04 07:44:55;;;;;;;20.35;10.55;;;10.20;61.60;;;;;;5112465;28;20388;-55
2022/02/04 07:47:21;;;;;;;27.25;9.68;;;13.00;57.00;;;;;;5113465;28;20019;-53
2022/02/04 07:49:47;;;;;;;16.42;8.25;;;15.30;49.10;;;;;;5095848;28;20024;-53
2022/02/04 07:52:13;;;;;;;21.67;7.72;;;15.50;45.40;;;;;;5113482;28;20022;-54
2022/02/04 07:54:38;;;;;;;38.58;10.30;;;14.60;44.70;;;;;;5112706;28;20035;-55
2022/02/04 07:57:04;;;;;;;16.77;8.73;;;13.80;47.40;;;;;;5111601;28;20046;-54
2022/02/04 07:59:30;;;;;;;25.65;8.10;;;15.30;47.60;;;;;;5110886;28;20476;-54
2022/02/04 08:01:56;;;;;;;17.85;8.30;;;15.30;44.80;;;;;;5104858;28;20110;-51
2022/02/04 08:04:27;;;;;;;22.10;8.63;;;14.30;45.50;;;;;;5098713;28;20034;-56
2022/02/04 08:06:59;;;;;;;27.70;9.23;;;14.10;46.50;;;;;;5084210;28;20028;-56
2022/02/04 08:12:33;;;;;;;;;;;14.30;46.80;;;;;;5107594;28;20031;-56
2022/02/04 08:15:15;;;;;;;15.02;7.43;;;14.10;45.00;;;;;;5099789;28;19908;-55
2022/02/04 08:23:15;;;;;;;17.35;8.80;;;12.50;49.30;;;;;;5107382;28;20139;-56
2022/02/04 08:47:08;;;;;;;;;;;11.60;52.00;;;;;;5097703;28;20432;-58
2022/02/04 08:54:59;;;;;;;32.35;11.73;;;11.30;53.40;;;;;;5101482;28;20035;-56
2022/02/04 09:02:41;;;;;;;26.05;11.52;;;10.70;55.30;;;;;;5105805;28;20038;-54
2022/02/04 09:05:15;;;;;;;25.75;11.43;;;10.60;55.50;;;;;;5094993;28;20371;-59
2022/02/04 09:07:56;;;;;;;32.45;11.18;;;10.70;55.70;;;;;;5096562;28;20502;-55
2022/02/04 09:10:24;;;;;;;21.00;10.27;;;10.70;55.70;;;;;;5105208;28;20039;-53
2022/02/04 09:23:23;;;;;;;25.25;11.77;;;10.90;56.80;;;;;;5105074;28;20071;-58
2022/02/04 09:25:49;;;;;;;17.77;10.00;;;11.10;57.50;;;;;;5099496;28;20019;-55
2022/02/04 09:28:14;;;;;;;18.52;10.88;;;11.20;57.80;;;;;;5103612;28;20019;-58
2022/02/04 09:30:59;;;;;;;17.83;10.50;;;11.30;58.50;;;;;;5103327;28;20024;-53
2022/02/04 09:33:25;;;;;;;20.30;11.38;;;11.50;58.40;;;;;;5105793;28;20032;-58
2022/02/04 09:35:50;;;;;;;15.68;11.00;;;11.60;58.50;;;;;;5093767;28;20084;-56
2022/02/04 09:38:16;;;;;;;17.70;10.15;;;11.50;59.40;;;;;;5098622;28;20325;-53
2022/02/04 09:40:42;;;;;;;22.45;11.13;;;11.60;59.20;;;;;;5108034;28;20038;-52
2022/02/04 09:43:08;;;;;;;28.63;12.00;;;11.90;58.80;;;;;;5091614;28;20040;-55
2022/02/04 09:45:36;;;;;;;14.05;9.50;;;12.00;58.40;;;;;;5079485;28;20404;-51
2022/02/04 09:48:06;;;;;;;12.85;9.18;;;12.20;58.40;;;;;;5107699;28;20020;-53
2022/02/04 09:50:36;;;;;;;13.98;9.32;;;12.20;58.30;;;;;;5078665;28;20452;-50
2022/02/04 10:12:57;;;;;;;11.88;7.75;;;12.50;56.60;;;;;;5069689;28;20168;-57
2022/02/04 10:17:41;;;;;;;11.90;8.15;;;12.40;56.60;;;;;;5099741;28;20039;-57
2022/02/04 10:20:08;;;;;;;10.57;7.30;;;12.50;56.40;;;;;;5103819;28;20039;-57
2022/02/04 10:22:34;;;;;;;11.38;7.35;;;12.50;56.10;;;;;;5108644;28;20040;-59
2022/02/04 10:25:04;;;;;;;19.35;8.48;;;12.50;56.10;;;;;;5109179;28;20042;-56
2022/02/04 10:27:35;;;;;;;12.05;8.05;;;12.60;55.90;;;;;;5089602;28;20034;-51
2022/02/04 10:30:08;;;;;;;10.05;5.85;;;12.70;55.30;;;;;;5093180;22;20060;-61
2022/02/04 10:32:41;;;;;;;14.30;7.00;;;12.60;54.20;;;;;;5065907;28;20024;-62
2022/02/04 10:35:25;;;;;;;10.73;7.18;;;12.60;54.40;;;;;;5067728;28;20119;-62
2022/02/04 10:41:28;;;;;;;12.82;7.65;;;12.60;54.60;;;;;;5063648;28;20401;-63
2022/02/04 10:46:44;;;;;;;;;;;12.70;54.90;;;;;;5065864;28;20051;-61
2022/02/04 10:55:37;;;;;;;11.98;9.10;;;13.20;54.50;;;;;;5052996;28;20392;-64
2022/02/04 11:00:06;;;;;;;13.32;9.10;;;13.30;54.40;;;;;;5064019;28;20029;-64
2022/02/04 11:02:39;;;;;;;12.38;8.13;;;13.30;53.80;;;;;;5039889;28;20028;-64
2022/02/04 11:05:19;;;;;;;15.50;8.70;;;13.30;53.60;;;;;;5044581;28;20550;-63
2022/02/04 11:08:48;;;;;;;10.73;8.05;;;13.30;53.70;;;;;;5059352;28;20485;-64
2022/02/04 11:11:53;;;;;;;14.50;8.10;;;13.30;53.60;;;;;;5045057;28;20037;-63
2022/02/04 11:35:40;;;;;;;11.77;8.27;;;13.20;53.40;;;;;;5060844;28;20432;-62
2022/02/04 11:44:01;;;;;;;11.90;8.10;;;13.30;53.50;;;;;;5065830;28;20361;-63
2022/02/04 11:52:31;;;;;;;13.48;8.20;;;13.10;54.20;;;;;;5055071;28;20071;-63
2022/02/04 11:55:21;;;;;;;12.00;7.30;;;13.10;54.20;;;;;;5063016;28;20028;-62
2022/02/04 11:57:57;;;;;;;15.02;9.13;;;13.10;54.20;;;;;;5058550;28;20383;-61
2022/02/04 12:00:26;;;;;;;14.45;9.02;;;13.10;54.50;;;;;;5066478;28;20047;-64
2022/02/04 12:02:54;;;;;;;10.88;8.07;;;13.10;54.30;;;;;;5066003;28;20522;-62
2022/02/04 12:05:20;;;;;;;11.40;8.45;;;13.20;54.20;;;;;;5059019;28;20044;-60
2022/02/04 12:07:55;;;;;;;12.68;8.82;;;13.20;54.30;;;;;;5068393;28;20047;-63
2022/02/04 12:10:30;;;;;;;9.73;7.88;;;13.30;54.10;;;;;;5065273;28;20031;-63
2022/02/04 12:12:56;;;;;;;12.50;8.00;;;13.40;53.80;;;;;;5068066;28;20181;-62
2022/02/04 12:15:30;;;;;;;9.90;7.57;;;13.50;53.70;;;;;;5058125;28;20037;-63
2022/02/04 12:17:57;;;;;;;10.43;7.75;;;13.50;53.30;;;;;;5064022;28;20033;-64
2022/02/04 12:20:53;;;;;;;8.50;6.90;;;13.40;53.20;;;;;;5044911;28;20034;-62
2022/02/04 12:23:28;;;;;;;8.48;6.25;;;13.40;53.00;;;;;;5062764;28;20024;-64
2022/02/04 12:26:11;;;;;;;7.88;6.70;;;13.20;53.40;;;;;;5068910;28;20130;-63
2022/02/04 12:28:40;;;;;;;8.55;6.18;;;13.00;53.60;;;;;;5066983;28;20083;-62
2022/02/04 12:31:24;;;;;;;9.98;6.53;;;12.90;53.80;;;;;;5068257;28;20036;-63
2022/02/04 12:34:02;;;;;;;8.35;6.40;;;12.90;53.60;;;;;;5042473;28;20025;-62
2022/02/04 12:36:47;;;;;;;8.68;5.97;;;12.90;53.80;;;;;;5065107;28;20333;-61
2022/02/04 12:39:19;;;;;;;11.05;6.45;;;13.00;53.70;;;;;;5066213;28;20039;-62
2022/02/04 12:41:51;;;;;;;12.32;6.75;;;13.00;53.60;;;;;;5068444;28;20047;-62
2022/02/04 12:44:19;;;;;;;22.40;9.60;;;13.10;53.30;;;;;;5069716;28;20063;-64
2022/02/04 12:46:47;;;;;;;9.30;6.28;;;13.10;53.30;;;;;;5046048;28;20119;-63
2022/02/04 12:49:18;;;;;;;11.45;7.30;;;13.10;53.40;;;;;;5060953;28;20071;-63
2022/02/04 12:52:03;;;;;;;11.60;5.43;;;13.10;53.50;;;;;;5047497;28;20140;-63
2022/02/04 12:54:35;;;;;;;8.93;5.72;;;13.10;53.10;;;;;;5049078;28;20196;-63
2022/02/04 13:03:08;;;;;;;10.45;5.10;;;13.10;53.20;;;;;;5054345;28;20465;-62
2022/02/04 13:11:02;;;;;;;7.10;5.07;;;13.00;53.30;;;;;;5050555;28;20488;-61
2022/02/04 13:13:35;;;;;;;7.05;4.75;;;13.00;53.50;;;;;;5068374;28;20050;-62
2022/02/04 13:16:00;;;;;;;11.00;4.97;;;12.90;53.20;;;;;;5071308;28;20024;-63
2022/02/04 13:18:26;;;;;;;7.45;5.05;;;12.90;53.40;;;;;;5069154;28;20119;-65
2022/02/04 13:20:57;;;;;;;7.40;4.88;;;13.00;53.30;;;;;;5065183;28;20021;-62
2022/02/04 13:23:27;;;;;;;7.43;3.72;;;13.10;52.70;;;;;;5064972;28;20036;-63
2022/02/04 13:25:57;;;;;;;7.13;4.07;;;13.00;52.40;;;;;;5068177;28;20089;-64
2022/02/04 13:28:37;;;;;;;8.73;4.22;;;13.10;52.30;;;;;;5061087;28;20152;-63
2022/02/04 13:31:06;;;;;;;11.35;4.55;;;13.00;52.10;;;;;;5068084;28;20020;-63
2022/02/04 13:33:37;;;;;;;8.02;5.43;;;13.00;52.40;;;;;;5063366;28;20055;-63
2022/02/04 13:47:04;;;;;;;7.68;4.82;;;12.50;53.80;;;;;;5062964;28;20033;-61
2022/02/04 13:52:22;;;;;;;7.22;5.47;;;12.40;54.40;;;;;;5063951;28;20028;-63
2022/02/04 13:57:50;;;;;;;8.90;5.45;;;12.40;55.10;;;;;;5070845;28;20374;-64
2022/02/04 14:00:43;;;;;;;7.10;5.75;;;12.40;55.30;;;;;;5067925;28;20032;-63
2022/02/04 14:03:15;;;;;;;11.32;6.05;;;12.40;55.40;;;;;;5068107;28;20029;-62
2022/02/04 14:05:48;;;;;;;17.08;8.70;;;12.40;55.40;;;;;;5066585;28;20036;-64
2022/02/04 14:08:18;;;;;;;10.70;6.78;;;12.50;55.60;;;;;;5069314;28;20024;-63
2022/02/04 14:10:49;;;;;;;11.93;8.55;;;12.50;55.40;;;;;;5070659;28;20176;-62
2022/02/04 14:13:23;;;;;;;14.05;6.85;;;12.60;55.40;;;;;;5069944;28;20111;-62
2022/02/04 14:15:59;;;;;;;10.15;6.85;;;12.60;55.30;;;;;;5052857;28;20029;-63
2022/02/04 14:18:29;;;;;;;9.13;6.60;;;12.70;55.00;;;;;;5048797;28;20040;-63
2022/02/04 14:20:56;;;;;;;9.10;6.32;;;12.70;54.90;;;;;;5068308;28;20100;-62
2022/02/04 14:23:22;;;;;;;8.00;6.43;;;12.70;55.00;;;;;;5039928;28;20029;-63
2022/02/04 14:26:06;;;;;;;13.30;7.15;;;12.70;54.90;;;;;;5069729;28;20029;-63
2022/02/04 14:28:47;;;;;;;9.40;6.82;;;12.70;54.90;;;;;;5058311;28;20536;-63
2022/02/04 14:31:24;;;;;;;8.80;7.22;;;12.80;54.70;;;;;;5065972;28;20029;-61
2022/02/04 14:37:23;;;;;;;8.45;6.30;;;12.80;54.20;;;;;;5045321;28;20477;-57
2022/02/04 14:53:06;;;;;;;8.13;6.20;;;12.10;55.40;;;;;;5057088;28;20123;-63
2022/02/04 14:58:42;;;;;;;8.82;6.68;;;12.10;55.70;;;;;;5061969;28;20061;-65
2022/02/04 15:01:49;;;;;;;10.73;7.43;;;11.90;55.70;;;;;;5058292;28;20063;-60
2022/02/04 15:04:08;;;;;;;10.30;7.25;;;11.90;55.70;;;;;;5052121;28;20064;-63
2022/02/04 15:06:38;;;;;;;10.10;7.05;;;11.90;55.70;;;;;;5050007;28;20574;-64
2022/02/04 15:09:09;;;;;;;9.02;6.18;;;11.90;55.70;;;;;;5051305;28;20468;-64
2022/02/04 15:11:37;;;;;;;11.18;7.10;;;11.80;55.80;;;;;;5053524;28;20082;-66
2022/02/04 15:14:08;;;;;;;8.93;6.65;;;11.90;55.70;;;;;;5036988;28;20036;-67
2022/02/04 15:16:35;;;;;;;8.98;6.50;;;11.80;56.00;;;;;;5056431;28;20052;-62
2022/02/04 15:19:01;;;;;;;11.65;7.45;;;11.80;56.00;;;;;;5064080;28;20040;-62
2022/02/04 15:21:27;;;;;;;12.88;7.30;;;11.80;56.10;;;;;;5062220;28;20414;-62
2022/02/04 15:23:54;;;;;;;12.30;7.45;;;11.80;56.00;;;;;;5060506;28;20064;-62
2022/02/04 15:26:22;;;;;;;11.75;8.07;;;11.80;56.10;;;;;;5061393;28;20024;-63
2022/02/04 15:34:01;;;;;;;13.98;7.93;;;11.70;56.30;;;;;;5055491;28;20091;-62
2022/02/04 15:36:35;;;;;;;11.43;8.27;;;11.70;56.30;;;;;;5064443;28;20040;-63
2022/02/04 15:39:06;;;;;;;12.27;7.65;;;11.70;56.40;;;;;;5042747;28;20508;-62
2022/02/04 15:41:33;;;;;;;12.02;8.13;;;11.70;56.50;;;;;;5062426;28;20036;-62
2022/02/04 15:44:05;;;;;;;9.18;7.28;;;11.60;56.50;;;;;;5062919;28;20053;-63
2022/02/04 15:46:48;;;;;;;12.18;8.25;;;11.60;56.80;;;;;;5063044;28;20475;-62
2022/02/04 15:54:35;;;;;;;12.93;9.43;;;11.40;57.20;;;;;;5059187;28;20080;-62
2022/02/04 16:04:54;;;;;;;10.43;8.10;;;11.40;57.50;;;;;;5066484;28;20044;-64
2022/02/04 16:07:22;;;;;;;11.70;8.40;;;11.30;57.70;;;;;;5045575;28;20035;-64
2022/02/04 16:09:56;;;;;;;12.95;9.43;;;11.30;57.70;;;;;;5042348;28;20036;-64
2022/02/04 16:12:28;;;;;;;12.63;8.55;;;11.30;57.70;;;;;;5065564;28;20119;-64
2022/02/04 16:15:05;;;;;;;11.48;8.80;;;11.30;57.70;;;;;;5062700;28;20098;-64
2022/02/04 16:17:37;;;;;;;12.98;9.55;;;11.40;57.90;;;;;;5064036;28;20020;-65
2022/02/04 16:20:20;;;;;;;12.90;8.98;;;11.30;57.90;;;;;;5060786;28;20492;-63
2022/02/04 16:23:06;;;;;;;13.13;9.77;;;11.40;57.80;;;;;;5060448;28;20028;-64
2022/02/04 16:30:42;;;;;;;15.82;9.00;;;11.30;58.00;;;;;;5062546;28;20099;-66
2022/02/04 16:33:08;;;;;;;11.50;9.25;;;11.30;58.10;;;;;;5042306;28;20473;-67
2022/02/04 16:35:34;;;;;;;12.35;9.18;;;11.30;58.20;;;;;;5064189;28;20059;-64
2022/02/04 16:38:04;;;;;;;13.25;9.02;;;11.30;58.30;;;;;;5069092;28;20028;-66
2022/02/04 16:40:35;;;;;;;12.27;9.23;;;11.20;58.90;;;;;;5060602;28;20044;-62
2022/02/04 16:43:02;;;;;;;13.65;8.70;;;11.10;59.00;;;;;;5066838;28;20132;-64
2022/02/04 16:45:28;;;;;;;16.52;9.35;;;11.10;59.40;;;;;;5061089;28;21348;-64
2022/02/04 16:47:57;;;;;;;14.80;9.30;;;11.10;59.40;;;;;;5054008;28;20045;-64
2022/02/04 16:50:23;;;;;;;15.15;9.25;;;11.10;59.40;;;;;;5058111;28;20366;-63
2022/02/04 16:52:50;;;;;;;14.10;10.38;;;11.20;59.30;;;;;;5056955;28;20124;-62
2022/02/04 16:55:17;;;;;;;16.35;10.23;;;11.30;59.40;;;;;;5065313;28;20025;-62
2022/02/04 16:57:43;;;;;;;16.08;10.20;;;11.30;59.40;;;;;;5056895;28;20158;-66
2022/02/04 17:00:20;;;;;;;18.63;9.32;;;11.30;59.30;;;;;;5035433;28;20112;-61
2022/02/04 17:02:52;;;;;;;13.52;9.60;;;11.30;59.20;;;;;;5062212;28;20025;-66
2022/02/04 17:05:20;;;;;;;18.50;11.30;;;11.30;59.10;;;;;;5060031;28;20036;-64
2022/02/04 17:07:54;;;;;;;15.70;11.52;;;11.40;59.00;;;;;;5064248;28;20063;-67
2022/02/04 17:10:32;;;;;;;21.75;12.52;;;11.40;59.00;;;;;;5060533;28;20020;-66
2022/02/04 17:13:01;;;;;;;16.02;11.18;;;11.30;59.00;;;;;;5046853;28;20032;-63
2022/02/04 17:15:35;;;;;;;14.18;10.57;;;11.30;59.10;;;;;;5036991;28;20089;-63
2022/02/04 17:18:03;;;;;;;16.48;11.00;;;11.20;59.20;;;;;;5059222;28;20032;-64
2022/02/04 17:20:29;;;;;;;19.13;9.95;;;11.20;59.20;;;;;;5064090;28;20074;-63
2022/02/04 17:22:56;;;;;;;14.52;9.98;;;11.20;59.30;;;;;;5067703;28;20054;-63
2022/02/04 17:25:28;;;;;;;19.25;10.07;;;11.20;59.30;;;;;;5066943;28;20029;-62
2022/02/04 17:27:57;;;;;;;14.10;10.13;;;11.10;59.40;;;;;;5066652;28;20032;-63
2022/02/04 17:30:24;;;;;;;14.80;9.63;;;11.10;59.50;;;;;;5058320;28;20135;-63
2022/02/04 17:32:50;;;;;;;15.30;9.98;;;11.10;59.60;;;;;;5068131;28;20041;-62
2022/02/04 17:35:19;;;;;;;20.85;10.60;;;11.10;59.70;;;;;;5066495;28;20040;-65
2022/02/04 17:37:45;;;;;;;16.40;10.65;;;11.00;59.80;;;;;;5041844;28;20061;-63
2022/02/04 17:40:14;;;;;;;15.50;10.75;;;11.00;60.00;;;;;;5064910;28;20029;-63
2022/02/04 17:42:41;;;;;;;19.13;11.70;;;11.00;60.00;;;;;;5067751;28;20152;-63
2022/02/04 17:45:16;;;;;;;18.75;12.90;;;10.90;60.10;;;;;;5058107;28;20037;-63
2022/02/04 17:47:42;;;;;;;17.77;11.15;;;10.90;60.20;;;;;;5062957;28;20048;-64
2022/02/04 17:50:17;;;;;;;16.70;10.85;;;10.80;60.10;;;;;;5063532;28;20033;-63
2022/02/04 17:52:47;;;;;;;14.70;10.85;;;10.80;60.00;;;;;;5068693;28;20032;-64
2022/02/04 17:55:22;;;;;;;18.40;10.88;;;10.80;59.90;;;;;;5065512;28;20465;-63
2022/02/04 17:57:54;;;;;;;13.63;10.52;;;10.80;59.70;;;;;;5064475;28;20496;-63
2022/02/04 18:08:11;;;;;;;16.20;10.77;;;10.70;59.20;;;;;;5060156;28;20405;-62
2022/02/04 18:10:37;;;;;;;16.17;9.75;;;10.70;59.10;;;;;;5061357;28;20029;-62
2022/02/04 18:13:04;;;;;;;16.08;9.90;;;10.70;59.10;;;;;;5069493;28;20126;-63
2022/02/04 18:15:30;;;;;;;16.20;10.02;;;10.70;59.10;;;;;;5068897;28;20454;-62
2022/02/04 18:17:56;;;;;;;17.40;9.90;;;10.70;59.00;;;;;;5063734;28;20024;-62
2022/02/04 18:20:22;;;;;;;14.13;9.52;;;10.70;59.00;;;;;;5069992;28;20028;-62
2022/02/04 18:22:51;;;;;;;14.77;10.20;;;10.70;59.10;;;;;;5069267;28;20218;-61
2022/02/04 18:25:18;;;;;;;23.58;11.95;;;10.70;59.00;;;;;;5069341;28;20036;-63
2022/02/04 18:27:47;;;;;;;17.38;10.88;;;10.70;59.00;;;;;;5050487;28;20349;-62
2022/02/04 18:30:15;;;;;;;13.98;9.85;;;10.70;59.00;;;;;;5069218;28;20206;-63
2022/02/04 18:32:46;;;;;;;20.40;15.27;;;10.60;59.10;;;;;;5060667;28;20504;-61
2022/02/04 18:35:12;;;;;;;16.60;11.73;;;10.70;59.20;;;;;;5064466;28;20028;-61
2022/02/04 18:37:42;;;;;;;16.48;10.23;;;10.60;59.30;;;;;;5042740;28;20039;-63
2022/02/04 18:45:32;;;;;;;18.05;12.07;;;10.60;59.50;;;;;;5049974;28;20033;-63
2022/02/04 18:48:12;;;;;;;15.68;10.65;;;10.60;59.60;;;;;;5061279;28;20047;-63
2022/02/04 18:58:04;;;;;;;18.73;13.70;;;10.50;60.00;;;;;;5064840;28;20040;-62
2022/02/04 19:00:30;;;;;;;21.38;14.07;;;10.50;60.30;;;;;;5057960;28;20033;-62
2022/02/04 19:02:59;;;;;;;21.95;14.32;;;10.40;60.40;;;;;;5067528;28;20036;-62
2022/02/04 19:05:30;;;;;;;22.40;15.48;;;10.40;60.50;;;;;;5066285;28;20044;-63
2022/02/04 19:10:24;;;;;;;28.15;16.33;;;10.50;60.70;;;;;;5063526;28;20025;-62
2022/02/04 19:13:15;;;;;;;26.75;16.80;;;10.50;60.70;;;;;;5069249;28;20488;-62
2022/02/04 19:19:03;;;;;;;25.55;17.00;;;10.40;60.70;;;;;;5066235;28;20020;-63
2022/02/04 19:23:28;;;;;;;25.00;15.15;;;10.40;60.90;;;;;;5066861;28;20036;-61
2022/02/04 19:26:00;;;;;;;21.80;13.88;;;10.40;61.00;;;;;;5067572;28;20058;-60
2022/02/04 19:28:28;;;;;;;34.38;21.50;;;10.40;61.00;;;;;;5069220;28;20052;-61
2022/02/04 19:30:57;;;;;;;26.73;17.33;;;10.40;61.10;;;;;;5069272;28;20032;-63